createdAt,value
2019-02-18T00:00:53.180Z,22.60
2019-02-18T00:03:21.858Z,23.65
2019-02-18T00:05:50.520Z,24.00
2019-02-18T00:08:19.234Z,23.60
2019-02-18T00:10:47.932Z,22.00
2019-02-18T00:13:16.568Z,23.20
2019-02-18T00:15:45.249Z,22.60
2019-02-18T00:18:13.960Z,21.70
2019-02-18T00:20:42.587Z,21.97
2019-02-18T00:23:11.211Z,21.70
2019-02-18T00:25:39.814Z,20.92
2019-02-18T00:28:08.526Z,21.57
2019-02-18T00:30:37.161Z,21.27
2019-02-18T00:33:05.795Z,21.20
2019-02-18T00:35:34.425Z,20.00
2019-02-18T00:38:03.079Z,21.37
2019-02-18T00:40:31.696Z,21.27
2019-02-18T00:43:00.361Z,21.52
2019-02-18T00:45:28.982Z,21.07
2019-02-18T00:47:57.631Z,19.15
2019-02-18T00:50:26.664Z,22.02
2019-02-18T00:52:55.306Z,21.17
2019-02-18T00:55:23.970Z,23.12
2019-02-18T00:57:52.669Z,21.07
2019-02-18T01:00:21.371Z,20.43
2019-02-18T01:02:50.070Z,19.10
2019-02-18T01:05:18.766Z,21.73
2019-02-18T01:07:47.547Z,20.88
2019-02-18T01:10:16.214Z,21.55
2019-02-18T01:12:44.848Z,20.60
2019-02-18T01:15:13.623Z,21.45
2019-02-18T01:17:42.341Z,22.50
2019-02-18T01:20:11.410Z,20.80
2019-02-18T01:22:40.046Z,21.35
2019-02-18T01:25:10.143Z,21.05
2019-02-18T01:27:38.929Z,21.48
2019-02-18T01:30:10.413Z,21.85
2019-02-18T01:32:39.056Z,19.52
2019-02-18T01:35:08.400Z,22.48
2019-02-18T01:37:45.245Z,21.30
2019-02-18T01:40:09.918Z,20.35
2019-02-18T01:42:38.539Z,20.97
2019-02-18T01:45:08.006Z,21.60
2019-02-18T01:47:36.625Z,19.90
2019-02-18T01:50:45.438Z,21.45
2019-02-18T01:53:14.053Z,21.20
2019-02-18T01:55:42.679Z,21.65
2019-02-18T01:58:11.283Z,20.48
2019-02-18T02:00:39.989Z,18.90
2019-02-18T02:03:08.588Z,21.07
2019-02-18T02:05:37.233Z,22.17
2019-02-18T02:08:05.994Z,21.60
2019-02-18T02:10:34.627Z,21.10
2019-02-18T02:13:41.718Z,21.02
2019-02-18T02:16:11.847Z,20.90
2019-02-18T02:18:40.560Z,22.62
2019-02-18T02:21:09.220Z,22.45
2019-02-18T02:23:37.851Z,21.35
2019-02-18T02:26:06.523Z,24.32
2019-02-18T02:28:35.142Z,21.95
2019-02-18T02:31:03.807Z,21.73
2019-02-18T02:33:32.425Z,22.95
2019-02-18T02:36:01.061Z,23.02
2019-02-18T02:38:29.982Z,22.67
2019-02-18T02:40:58.614Z,22.17
2019-02-18T02:43:27.248Z,22.85
2019-02-18T02:45:55.895Z,23.30
2019-02-18T02:48:24.517Z,22.32
2019-02-18T02:50:53.134Z,22.93
2019-02-18T02:53:21.778Z,22.65
2019-02-18T02:55:50.420Z,23.07
2019-02-18T02:58:19.035Z,21.75
2019-02-18T03:00:47.683Z,22.50
2019-02-18T03:03:16.321Z,23.15
2019-02-18T03:05:44.977Z,19.67
2019-02-18T03:08:20.475Z,24.07
2019-02-18T03:10:44.075Z,20.57
2019-02-18T03:13:12.703Z,22.15
2019-02-18T03:15:41.341Z,22.37
2019-02-18T03:18:09.999Z,22.07
2019-02-18T03:20:38.616Z,22.45
2019-02-18T03:23:07.326Z,22.45
2019-02-18T03:25:36.011Z,22.75
2019-02-18T03:28:27.928Z,22.10
2019-02-18T03:31:09.656Z,20.65
2019-02-18T03:33:59.435Z,20.37
2019-02-18T03:36:28.044Z,22.67
2019-02-18T03:38:56.667Z,23.35
2019-02-18T03:41:25.272Z,20.62
2019-02-18T03:43:53.990Z,22.40
2019-02-18T03:46:22.648Z,21.80
2019-02-18T03:48:51.274Z,23.40
2019-02-18T03:51:19.891Z,22.73
2019-02-18T03:53:48.522Z,22.65
2019-02-18T03:56:17.139Z,22.20
2019-02-18T03:58:45.795Z,22.67
2019-02-18T04:01:14.497Z,23.40
2019-02-18T04:03:43.208Z,22.75
2019-02-18T04:06:11.923Z,22.40
2019-02-18T04:08:43.243Z,22.13
2019-02-18T04:11:10.981Z,22.32
2019-02-18T04:13:39.602Z,23.77
2019-02-18T04:16:08.260Z,21.60
2019-02-18T04:18:36.838Z,20.60
2019-02-18T04:21:05.545Z,22.65
2019-02-18T04:23:34.224Z,22.00
2019-02-18T04:26:02.864Z,20.00
2019-02-18T04:28:31.497Z,20.27
2019-02-18T04:31:00.160Z,21.07
2019-02-18T04:33:28.783Z,21.90
2019-02-18T04:35:57.419Z,20.72
2019-02-18T04:38:26.041Z,21.10
2019-02-18T04:40:54.694Z,21.45
2019-02-18T04:43:23.333Z,23.40
2019-02-18T04:45:51.986Z,23.25
2019-02-18T04:48:20.592Z,22.35
2019-02-18T04:50:49.231Z,22.37
2019-02-18T04:53:17.853Z,21.40
2019-02-18T04:55:46.500Z,22.20
2019-02-18T04:58:15.126Z,19.15
2019-02-18T05:00:43.771Z,21.70
2019-02-18T05:03:12.435Z,21.12
2019-02-18T05:05:41.086Z,19.45
2019-02-18T05:08:09.719Z,21.40
2019-02-18T05:10:38.351Z,20.70
2019-02-18T05:13:06.990Z,21.02
2019-02-18T05:15:35.608Z,22.30
2019-02-18T05:18:04.244Z,21.52
2019-02-18T05:20:32.854Z,22.73
2019-02-18T05:23:01.487Z,22.10
2019-02-18T05:25:30.121Z,23.57
2019-02-18T05:27:58.768Z,23.15
2019-02-18T05:30:29.378Z,21.97
2019-02-18T05:35:33.615Z,23.90
2019-02-18T05:38:02.282Z,22.25
2019-02-18T05:40:30.904Z,21.97
2019-02-18T05:42:59.539Z,22.22
2019-02-18T05:45:28.164Z,21.40
2019-02-18T05:47:56.787Z,22.35
2019-02-18T05:50:25.425Z,21.45
2019-02-18T05:52:54.060Z,21.73
2019-02-18T05:55:22.704Z,23.32
2019-02-18T05:57:51.403Z,22.52
2019-02-18T06:00:19.962Z,21.17
2019-02-18T06:02:48.608Z,22.85
2019-02-18T06:05:17.246Z,21.40
2019-02-18T06:07:45.935Z,22.80
2019-02-18T06:10:17.015Z,23.77
2019-02-18T06:12:44.960Z,24.95
2019-02-18T06:15:13.599Z,24.95
2019-02-18T06:17:42.268Z,25.82
2019-02-18T06:20:11.024Z,27.13
2019-02-18T06:22:39.690Z,26.48
2019-02-18T06:25:08.409Z,22.42
2019-02-18T06:27:37.052Z,21.70
2019-02-18T06:30:06.247Z,22.98
2019-02-18T06:32:34.904Z,23.15
2019-02-18T06:35:04.045Z,20.95
2019-02-18T06:37:32.707Z,20.20
2019-02-18T06:40:01.350Z,20.80
2019-02-18T06:42:29.985Z,21.97
2019-02-18T06:45:17.607Z,24.75
2019-02-18T06:50:48.034Z,23.92
2019-02-18T06:53:16.672Z,24.40
2019-02-18T06:55:45.315Z,25.57
2019-02-18T06:58:52.163Z,25.50
2019-02-18T07:01:39.793Z,24.15
2019-02-18T07:04:27.407Z,24.80
2019-02-18T07:07:15.059Z,24.30
2019-02-18T07:10:02.672Z,23.87
2019-02-18T07:12:37.027Z,26.48
2019-02-18T07:15:06.827Z,23.55
2019-02-18T07:17:35.482Z,20.97
2019-02-18T07:20:04.536Z,22.52
2019-02-18T07:22:33.175Z,22.52
2019-02-18T07:25:01.793Z,22.73
2019-02-18T07:27:30.435Z,23.80
2019-02-18T07:29:59.055Z,23.38
2019-02-18T07:32:27.699Z,22.30
2019-02-18T07:34:56.336Z,21.95
2019-02-18T07:37:24.971Z,23.10
2019-02-18T07:40:01.110Z,22.93
2019-02-18T07:42:23.974Z,23.67
2019-02-18T07:44:52.594Z,22.25
2019-02-18T07:47:21.219Z,24.92
2019-02-18T07:49:49.854Z,24.92
2019-02-18T07:52:18.463Z,24.50
2019-02-18T07:54:47.119Z,23.38
2019-02-18T07:57:15.744Z,23.85
2019-02-18T07:59:44.388Z,24.82
2019-02-18T08:02:13.020Z,25.17
2019-02-18T08:04:41.661Z,26.37
2019-02-18T08:07:10.563Z,24.70
2019-02-18T08:09:39.316Z,24.50
2019-02-18T08:12:08.061Z,23.60
2019-02-18T08:14:36.703Z,24.67
2019-02-18T08:17:05.607Z,25.45
2019-02-18T08:19:34.255Z,23.95
2019-02-18T08:22:02.919Z,24.90
2019-02-18T08:24:31.560Z,24.55
2019-02-18T08:27:00.238Z,24.52
2019-02-18T08:29:28.852Z,25.52
2019-02-18T08:31:57.719Z,23.73
2019-02-18T08:34:26.420Z,24.63
2019-02-18T08:36:55.120Z,25.65
2019-02-18T08:39:24.010Z,26.68
2019-02-18T08:41:52.788Z,25.65
2019-02-18T08:44:21.483Z,29.52
2019-02-18T08:46:50.108Z,28.35
2019-02-18T08:49:18.872Z,28.80
2019-02-18T08:51:47.500Z,27.22
2019-02-18T08:54:16.107Z,28.25
2019-02-18T08:56:44.821Z,28.45
2019-02-18T08:59:13.522Z,26.57
2019-02-18T09:01:42.171Z,30.68
2019-02-18T09:04:10.800Z,29.72
2019-02-18T09:06:39.458Z,28.70
2019-02-18T09:09:08.147Z,28.00
2019-02-18T09:11:36.778Z,28.75
2019-02-18T09:14:05.381Z,29.80
2019-02-18T09:16:34.003Z,29.45
2019-02-18T09:19:02.701Z,29.07
2019-02-18T09:24:25.914Z,30.60
2019-02-18T09:26:54.566Z,28.75
2019-02-18T09:29:23.212Z,28.70
2019-02-18T09:31:51.856Z,29.87
2019-02-18T09:34:20.558Z,28.40
2019-02-18T09:36:49.216Z,26.87
2019-02-18T09:39:30.737Z,30.15
2019-02-18T09:41:50.267Z,29.02
2019-02-18T09:44:18.977Z,30.52
2019-02-18T09:46:47.882Z,28.62
2019-02-18T09:49:16.798Z,27.32
2019-02-18T09:51:45.498Z,26.50
2019-02-18T09:54:14.120Z,29.55
2019-02-18T09:56:43.208Z,27.55
2019-02-18T09:59:11.852Z,27.95
2019-02-18T10:01:43.066Z,26.68
2019-02-18T10:04:10.937Z,25.62
2019-02-18T10:06:39.574Z,22.73
2019-02-18T10:09:27.578Z,20.95
2019-02-18T10:11:56.223Z,19.50
2019-02-18T10:14:24.851Z,18.30
2019-02-18T10:16:53.557Z,17.70
2019-02-18T10:19:22.230Z,17.48
2019-02-18T10:21:50.859Z,17.70
2019-02-18T10:24:19.503Z,18.57
2019-02-18T10:26:48.167Z,17.60
2019-02-18T10:29:16.805Z,17.87
2019-02-18T10:31:45.459Z,18.85
2019-02-18T10:34:14.220Z,18.40
2019-02-18T10:36:42.840Z,17.62
2019-02-18T10:39:11.729Z,17.95
2019-02-18T10:41:40.346Z,16.93
2019-02-18T10:44:09.001Z,18.45
2019-02-18T10:46:37.638Z,17.40
2019-02-18T10:49:19.111Z,17.65
2019-02-18T10:51:36.929Z,16.42
2019-02-18T10:54:07.295Z,17.05
2019-02-18T10:56:35.962Z,17.42
2019-02-18T10:59:04.673Z,16.37
2019-02-18T11:01:33.372Z,16.90
2019-02-18T11:04:21.227Z,17.80
2019-02-18T11:06:50.089Z,18.35
2019-02-18T11:09:18.758Z,16.70
2019-02-18T11:11:47.402Z,17.10
2019-02-18T11:14:16.033Z,17.17
2019-02-18T11:16:44.713Z,17.85
2019-02-18T11:19:13.353Z,15.28
2019-02-18T11:21:42.070Z,15.25
2019-02-18T11:24:10.779Z,16.10
2019-02-18T11:26:39.478Z,13.75
2019-02-18T11:29:09.856Z,13.40
2019-02-18T11:31:38.499Z,13.70
2019-02-18T11:34:07.118Z,12.70
2019-02-18T11:36:35.745Z,13.25
2019-02-18T11:42:18.367Z,13.28
2019-02-18T11:44:46.989Z,13.47
2019-02-18T11:47:15.639Z,12.73
2019-02-18T11:49:45.991Z,13.30
2019-02-18T11:52:14.992Z,13.93
2019-02-18T11:54:43.593Z,13.50
2019-02-18T11:57:12.250Z,12.00
2019-02-18T11:59:40.956Z,13.30
2019-02-18T12:02:09.590Z,11.60
2019-02-18T12:04:39.918Z,10.60
2019-02-18T12:07:08.550Z,11.27
2019-02-18T12:09:37.183Z,11.83
2019-02-18T12:12:05.826Z,10.20
2019-02-18T12:14:34.452Z,10.58
2019-02-18T12:17:03.171Z,10.43
2019-02-18T12:19:31.809Z,10.47
2019-02-18T12:22:00.434Z,9.40
2019-02-18T12:24:29.066Z,10.30
2019-02-18T12:26:57.689Z,9.50
2019-02-18T12:29:26.848Z,11.30
2019-02-18T12:31:56.684Z,10.67
2019-02-18T12:34:25.310Z,10.53
2019-02-18T12:36:55.678Z,9.67
2019-02-18T12:39:24.306Z,10.00
2019-02-18T12:41:52.946Z,9.40
2019-02-18T12:44:21.631Z,10.03
2019-02-18T12:46:50.331Z,9.90
2019-02-18T12:49:18.965Z,8.43
2019-02-18T12:51:49.315Z,10.23
2019-02-18T12:54:17.937Z,9.93
2019-02-18T12:56:46.562Z,10.27
2019-02-18T12:59:15.318Z,9.43
2019-02-18T13:01:44.018Z,8.73
2019-02-18T13:04:12.661Z,8.53
2019-02-18T13:06:41.386Z,9.10
2019-02-18T13:09:11.812Z,10.50
2019-02-18T13:11:40.513Z,9.97
2019-02-18T13:14:09.145Z,11.40
2019-02-18T13:16:37.751Z,10.80
2019-02-18T13:19:06.467Z,11.07
2019-02-18T13:21:35.130Z,11.63
2019-02-18T13:24:03.828Z,10.90
2019-02-18T13:26:32.732Z,10.50
2019-02-18T13:29:01.492Z,10.50
2019-02-18T13:31:30.109Z,10.07
2019-02-18T13:33:58.730Z,9.50
2019-02-18T13:36:27.352Z,10.03
2019-02-18T13:38:55.978Z,8.70
2019-02-18T13:41:24.673Z,9.30
2019-02-18T13:43:53.389Z,8.67
2019-02-18T13:46:22.034Z,8.50
2019-02-18T13:48:50.655Z,8.10
2019-02-18T13:51:24.262Z,8.40
2019-02-18T13:53:49.683Z,9.27
2019-02-18T13:56:18.394Z,8.00
2019-02-18T13:58:48.714Z,7.40
2019-02-18T14:01:17.347Z,9.83
2019-02-18T14:03:45.965Z,7.80
2019-02-18T14:06:14.686Z,9.50
2019-02-18T14:08:43.389Z,10.40
2019-02-18T14:11:12.034Z,8.80
2019-02-18T14:13:40.720Z,9.33
2019-02-18T14:16:09.326Z,7.90
2019-02-18T14:18:37.956Z,8.27
2019-02-18T14:21:06.640Z,9.07
2019-02-18T14:23:35.272Z,8.10
2019-02-18T14:26:04.003Z,8.70
2019-02-18T14:28:32.791Z,8.37
2019-02-18T14:31:01.561Z,7.80
2019-02-18T14:33:30.258Z,8.50
2019-02-18T14:35:58.958Z,8.43
2019-02-18T14:38:27.676Z,8.30
2019-02-18T14:40:56.447Z,7.40
2019-02-18T14:43:25.155Z,7.70
2019-02-18T14:45:55.496Z,7.87
2019-02-18T14:48:24.242Z,7.40
2019-02-18T14:50:56.678Z,8.87
2019-02-18T14:53:23.269Z,8.17
2019-02-18T14:55:51.948Z,7.70
2019-02-18T14:58:20.640Z,8.40
2019-02-18T15:00:49.597Z,8.23
2019-02-18T15:03:18.291Z,8.47
2019-02-18T15:05:47.023Z,8.80
2019-02-18T15:08:15.697Z,8.20
2019-02-18T15:10:44.398Z,8.33
2019-02-18T15:13:13.023Z,7.80
2019-02-18T15:15:43.369Z,9.10
2019-02-18T15:18:12.062Z,8.67
2019-02-18T15:20:40.763Z,7.10
2019-02-18T15:23:09.367Z,8.53
2019-02-18T15:25:38.012Z,7.77
2019-02-18T15:28:06.687Z,8.33
2019-02-18T15:30:35.405Z,7.87
2019-02-18T15:33:04.114Z,8.17
2019-02-18T15:35:32.826Z,7.43
2019-02-18T15:38:01.471Z,9.03
2019-02-18T15:40:37.125Z,8.50
2019-02-18T15:43:05.782Z,8.53
2019-02-18T15:45:36.140Z,8.07
2019-02-18T15:48:05.018Z,8.37
2019-02-18T15:50:33.725Z,9.20
2019-02-18T15:53:02.371Z,8.73
2019-02-18T15:55:31.227Z,8.93
2019-02-18T15:57:59.837Z,8.10
2019-02-18T16:00:30.260Z,7.80
2019-02-18T16:02:58.887Z,8.47
2019-02-18T16:05:27.518Z,7.67
2019-02-18T16:07:56.123Z,8.37
2019-02-18T16:10:24.774Z,8.60
2019-02-18T16:12:53.420Z,7.70
2019-02-18T16:15:22.093Z,8.00
2019-02-18T16:17:50.735Z,6.77
2019-02-18T16:20:19.356Z,9.60
2019-02-18T16:22:48.045Z,9.53
2019-02-18T16:25:18.391Z,8.07
2019-02-18T16:27:47.111Z,8.20
2019-02-18T16:30:15.935Z,8.37
2019-02-18T16:32:46.305Z,9.83
2019-02-18T16:35:15.016Z,7.33
2019-02-18T16:37:43.732Z,8.30
2019-02-18T16:40:14.396Z,7.97
2019-02-18T16:42:43.027Z,6.50
2019-02-18T16:48:13.169Z,6.90
2019-02-18T16:50:41.803Z,8.53
2019-02-18T16:53:10.440Z,7.37
2019-02-18T16:55:39.058Z,6.53
2019-02-18T16:58:07.676Z,6.70
2019-02-18T17:00:36.350Z,6.90
2019-02-18T17:03:05.046Z,6.90
2019-02-18T17:05:33.728Z,7.40
2019-02-18T17:08:02.351Z,8.47
2019-02-18T17:10:32.729Z,6.23
2019-02-18T17:13:07.840Z,7.03
2019-02-18T17:15:31.962Z,6.70
2019-02-18T17:18:00.725Z,7.03
2019-02-18T17:20:29.401Z,4.50
2019-02-18T17:22:58.093Z,5.40
2019-02-18T17:25:28.525Z,5.62
2019-02-18T17:27:57.159Z,5.70
2019-02-18T17:30:25.864Z,6.67
2019-02-18T17:32:54.509Z,6.15
2019-02-18T17:35:23.246Z,6.40
2019-02-18T17:37:51.870Z,6.30
2019-02-18T17:40:20.592Z,4.92
2019-02-18T17:42:49.188Z,6.10
2019-02-18T17:45:17.904Z,5.20
2019-02-18T17:47:46.563Z,5.17
2019-02-18T17:50:15.300Z,5.43
2019-02-18T17:52:44.155Z,5.70
2019-02-18T17:55:13.614Z,5.37
2019-02-18T17:57:42.483Z,6.55
2019-02-18T18:00:13.995Z,5.70
2019-02-18T18:02:42.683Z,5.70
2019-02-18T18:05:30.811Z,5.80
2019-02-18T18:08:01.448Z,6.55
2019-02-18T18:10:30.151Z,5.67
2019-02-18T18:12:58.823Z,5.20
2019-02-18T18:15:27.599Z,6.03
2019-02-18T18:17:56.372Z,4.90
2019-02-18T18:20:25.240Z,5.20
2019-02-18T18:22:55.738Z,5.97
2019-02-18T18:25:24.482Z,5.67
2019-02-18T18:27:53.418Z,6.25
2019-02-18T18:30:22.220Z,5.42
2019-02-18T18:32:50.986Z,6.00
2019-02-18T18:35:19.876Z,5.03
2019-02-18T18:37:48.696Z,5.47
2019-02-18T18:40:17.729Z,5.60
2019-02-18T18:42:46.466Z,7.25
2019-02-18T18:45:15.804Z,5.62
2019-02-18T18:47:45.712Z,5.85
2019-02-18T18:50:15.846Z,7.17
2019-02-18T18:52:44.974Z,6.17
2019-02-18T18:55:13.759Z,6.75
2019-02-18T18:57:42.465Z,7.47
2019-02-18T19:03:03.319Z,7.97
2019-02-18T19:05:32.179Z,6.95
2019-02-18T19:08:01.011Z,9.68
2019-02-18T19:10:29.951Z,8.75
2019-02-18T19:12:58.971Z,7.55
2019-02-18T19:15:27.715Z,7.20
2019-02-18T19:17:58.212Z,7.00
2019-02-18T19:20:27.118Z,8.35
2019-02-18T19:23:14.919Z,7.15
2019-02-18T19:25:43.730Z,6.12
2019-02-18T19:28:14.282Z,7.65
2019-02-18T19:30:42.973Z,6.42
2019-02-18T19:33:11.864Z,6.15
2019-02-18T19:35:40.543Z,5.30
2019-02-18T19:41:24.139Z,5.80
2019-02-18T19:43:52.835Z,5.45
2019-02-18T19:46:21.568Z,6.20
2019-02-18T19:48:52.173Z,6.22
2019-02-18T19:51:21.047Z,7.45
2019-02-18T19:53:50.026Z,7.83
2019-02-18T19:56:18.876Z,10.95
2019-02-18T19:58:47.669Z,12.75
2019-02-18T20:01:16.376Z,14.98
2019-02-18T20:03:45.170Z,13.05
2019-02-18T20:06:14.158Z,13.90
2019-02-18T20:08:42.903Z,12.43
2019-02-18T20:11:12.292Z,12.90
2019-02-18T20:13:41.893Z,11.65
2019-02-18T20:16:10.667Z,11.53
2019-02-18T20:18:39.465Z,12.18
2019-02-18T20:21:08.198Z,12.50
2019-02-18T20:23:36.949Z,11.15
2019-02-18T20:29:00.393Z,12.10
2019-02-18T20:31:29.136Z,10.72
2019-02-18T20:33:58.006Z,11.60
2019-02-18T20:36:26.863Z,10.85
2019-02-18T20:38:55.788Z,9.45
2019-02-18T20:41:24.558Z,8.55
2019-02-18T20:43:53.381Z,8.83
2019-02-18T20:46:22.256Z,9.40
2019-02-18T20:48:50.938Z,9.25
2019-02-18T20:51:19.786Z,9.33
2019-02-18T20:53:48.729Z,10.00
2019-02-18T20:56:17.504Z,10.13
2019-02-18T20:58:46.488Z,10.82
2019-02-18T21:01:15.506Z,10.95
2019-02-18T21:03:44.473Z,10.25
2019-02-18T21:06:13.247Z,10.15
2019-02-18T21:08:41.989Z,12.23
2019-02-18T21:11:10.895Z,10.28
2019-02-18T21:13:41.427Z,9.35
2019-02-18T21:16:10.428Z,9.58
2019-02-18T21:18:39.368Z,10.03
2019-02-18T21:21:08.170Z,8.63
2019-02-18T21:23:37.013Z,10.15
2019-02-18T21:26:05.969Z,10.00
2019-02-18T21:28:34.888Z,10.38
2019-02-18T21:31:03.718Z,9.98
2019-02-18T21:33:32.612Z,9.58
2019-02-18T21:36:01.592Z,9.25
2019-02-18T21:38:30.571Z,10.05
2019-02-18T21:40:59.262Z,10.40
2019-02-18T21:43:28.357Z,10.30
2019-02-18T21:45:57.084Z,9.35
2019-02-18T21:48:25.841Z,9.23
2019-02-18T21:50:54.571Z,9.35
2019-02-18T21:53:23.355Z,8.58
2019-02-18T21:55:52.182Z,9.23
2019-02-18T21:58:21.450Z,7.25
2019-02-18T22:00:50.225Z,9.25
2019-02-18T22:03:19.091Z,7.50
2019-02-18T22:05:47.988Z,8.55
2019-02-18T22:08:16.730Z,8.95
2019-02-18T22:10:45.536Z,9.55
2019-02-18T22:13:14.445Z,8.95
2019-02-18T22:15:43.195Z,8.33
2019-02-18T22:18:12.076Z,8.50
2019-02-18T22:20:40.781Z,9.33
2019-02-18T22:23:09.776Z,8.83
2019-02-18T22:25:38.893Z,10.18
2019-02-18T22:28:07.634Z,9.33
2019-02-18T22:30:40.588Z,9.30
2019-02-18T22:35:44.247Z,8.98
2019-02-18T22:38:15.364Z,9.35
2019-02-18T22:43:55.936Z,9.30
2019-02-18T22:46:24.630Z,11.00
2019-02-18T22:48:53.838Z,9.28
2019-02-18T22:51:25.603Z,9.40
2019-02-18T22:53:54.563Z,10.95
2019-02-18T22:56:25.145Z,10.35
2019-02-18T22:58:53.958Z,8.10
2019-02-18T23:01:23.683Z,8.88
2019-02-18T23:03:52.719Z,8.40
2019-02-18T23:06:23.378Z,8.18
2019-02-18T23:08:52.521Z,7.70
2019-02-18T23:11:21.351Z,8.70
2019-02-18T23:13:50.077Z,8.03
2019-02-18T23:19:12.366Z,8.70
2019-02-18T23:21:41.173Z,8.25
2019-02-18T23:24:09.872Z,8.35
2019-02-18T23:26:38.602Z,8.80
2019-02-18T23:29:07.692Z,7.92
2019-02-18T23:31:36.558Z,8.65
2019-02-18T23:34:07.194Z,8.80
2019-02-18T23:36:35.981Z,9.20
2019-02-18T23:45:07.811Z,9.25
2019-02-18T23:47:36.470Z,8.50
2019-02-18T23:50:05.204Z,8.95
2019-02-18T23:52:33.827Z,9.50
2019-02-18T23:55:02.445Z,8.80
2019-02-18T23:57:31.088Z,9.45
2019-02-18T23:59:59.687Z,9.50
